Time;durP1;ratioP1;P1;durP2;ratioP2;P2;SDS_P1;SDS_P2;PMS_P1;PMS_P2;Temp;Humidity;BMP_temperature;BMP_pressure;BME280_temperature;BME280_humidity;BME280_pressure;Samples;Min_cycle;Max_cycle;Signal;HPM_P1;HPM_P2
2020/12/04 00:00:30;;;;;;;;;;;-0.40;99.90;;;;;;5117992;28;19967;-43
2020/12/04 00:02:56;;;;;;;;;;;-0.30;99.90;;;;;;5099895;28;19914;-43
2020/12/04 00:05:21;;;;;;;;;;;-0.40;99.90;;;;;;5117491;28;19911;-43
2020/12/04 00:07:47;;;;;;;;;;;-0.40;99.90;;;;;;5117807;28;20276;-43
2020/12/04 00:10:13;;;;;;;;;;;-0.40;99.90;;;;;;5117580;28;19966;-43
2020/12/04 00:12:40;;;;;;;;;;;-0.40;99.90;;;;;;5117275;28;19912;-43
2020/12/04 00:15:06;;;;;;;;;;;-0.40;99.90;;;;;;5117373;28;19958;-43
2020/12/04 00:17:31;;;;;;;;;;;-0.40;99.90;;;;;;5117589;28;20284;-43
2020/12/04 00:19:57;;;;;;;;;;;-0.40;99.90;;;;;;5117257;28;19998;-43
2020/12/04 00:22:23;;;;;;;;;;;-0.50;99.90;;;;;;5098935;28;20045;-43
2020/12/04 00:24:49;;;;;;;;;;;-0.40;99.90;;;;;;5117166;28;19994;-43
2020/12/04 00:27:14;;;;;;;;;;;-0.40;99.90;;;;;;5117393;28;19907;-43
2020/12/04 00:29:40;;;;;;;;;;;-0.40;99.90;;;;;;5117039;28;19907;-43
2020/12/04 00:32:05;;;;;;;;;;;-0.40;99.90;;;;;;5116941;28;19990;-43
2020/12/04 00:34:31;;;;;;;;;;;-0.40;99.90;;;;;;5117302;28;19943;-43
2020/12/04 00:36:57;;;;;;;;;;;-0.40;99.90;;;;;;5098657;28;19912;-43
2020/12/04 00:39:22;;;;;;;;;;;-0.40;99.90;;;;;;5116585;28;19908;-43
2020/12/04 00:41:48;;;;;;;;;;;-0.40;99.90;;;;;;5098576;28;19908;-43
2020/12/04 00:44:14;;;;;;;;;;;-0.40;99.90;;;;;;5098501;28;19908;-43
2020/12/04 00:46:39;;;;;;;;;;;-0.40;99.90;;;;;;5116741;28;19908;-43
2020/12/04 00:49:05;;;;;;;;;;;-0.40;99.90;;;;;;5116733;28;19943;-42
2020/12/04 00:51:31;;;;;;;;;;;-0.40;99.90;;;;;;5098117;28;19912;-43
2020/12/04 00:53:56;;;;;;;;;;;-0.40;99.90;;;;;;5098289;28;19911;-43
2020/12/04 00:56:22;;;;;;;;;;;-0.30;99.90;;;;;;5098291;28;20285;-43
2020/12/04 00:58:48;;;;;;;;;;;-0.30;99.90;;;;;;5097995;28;20381;-42
2020/12/04 01:01:14;;;;;;;;;;;-0.40;99.90;;;;;;5116733;28;19908;-43
2020/12/04 01:03:40;;;;;;;;;;;-0.40;99.90;;;;;;5097826;28;20061;-43
2020/12/04 01:06:05;;;;;;;;;;;-0.40;99.90;;;;;;5116657;28;20002;-42
2020/12/04 01:08:31;;;;;;;;;;;-0.40;99.90;;;;;;5116588;28;19971;-42
2020/12/04 01:10:57;;;;;;;;;;;-0.40;99.90;;;;;;5114801;28;19948;-44
2020/12/04 01:13:23;;;;;;;;;;;-0.40;99.90;;;;;;5116140;28;19912;-43
2020/12/04 01:15:48;;;;;;;;;;;-0.40;99.90;;;;;;5097625;28;20281;-43
2020/12/04 01:18:14;;;;;;;;;;;-0.30;99.90;;;;;;5116681;28;19914;-43
2020/12/04 01:20:40;;;;;;;;;;;-0.30;99.90;;;;;;5116396;28;19912;-43
2020/12/04 01:23:05;;;;;;;;;;;-0.30;99.90;;;;;;5116086;28;19911;-43
2020/12/04 01:25:31;;;;;;;;;;;-0.30;99.90;;;;;;5116563;28;19911;-44
2020/12/04 01:27:56;;;;;;;;;;;-0.20;99.90;;;;;;5115593;28;20322;-42
2020/12/04 01:30:22;;;;;;;;;;;-0.20;99.90;;;;;;5115878;28;19908;-43
2020/12/04 01:32:48;;;;;;;;;;;-0.10;99.90;;;;;;5116067;28;19912;-43
2020/12/04 01:35:14;;;;;;;;;;;-0.10;99.90;;;;;;5115747;28;19912;-43
2020/12/04 01:37:40;;;;;;;;;;;-0.10;99.90;;;;;;5115918;28;20006;-43
2020/12/04 01:40:06;;;;;;;;;;;0.00;99.90;;;;;;5115679;28;19908;-43
2020/12/04 01:42:31;;;;;;;;;;;0.00;99.90;;;;;;5116180;28;19919;-43
2020/12/04 01:44:57;;;;;;;;;;;0.00;99.90;;;;;;5115843;28;20308;-43
2020/12/04 01:47:23;;;;;;;;;;;-0.10;99.90;;;;;;5097040;28;19957;-44
2020/12/04 01:49:48;;;;;;;;;;;-0.10;99.90;;;;;;5115765;28;19915;-43
2020/12/04 01:52:14;;;;;;;;;;;0.00;99.90;;;;;;5115686;28;19912;-44
2020/12/04 01:54:40;;;;;;;;;;;0.00;99.90;;;;;;5115173;28;19954;-43
2020/12/04 01:57:06;;;;;;;;;;;0.00;99.90;;;;;;5115660;28;20335;-43
2020/12/04 01:59:32;;;;;;;;;;;0.00;99.90;;;;;;5115626;28;19912;-43
2020/12/04 02:02:06;;;;;;;;;;;0.10;99.90;;;;;;5115832;28;20346;-43
2020/12/04 02:04:31;;;;;;;;;;;0.00;99.90;;;;;;5115588;28;20277;-41
2020/12/04 02:07:01;;;;;;;;;;;0.00;99.90;;;;;;5115419;28;19956;-41
2020/12/04 02:09:30;;;;;;;;;;;0.00;99.90;;;;;;5114779;28;19915;-41
2020/12/04 02:11:58;;;;;;;;;;;0.00;99.90;;;;;;5114901;28;19907;-41
2020/12/04 02:14:24;;;;;;;;;;;0.00;99.90;;;;;;5115509;28;19912;-41
2020/12/04 02:16:59;;;;;;;;;;;0.00;99.90;;;;;;5115230;28;19921;-41
2020/12/04 02:19:24;;;;;;;;;;;0.00;99.90;;;;;;5115358;28;19908;-43
2020/12/04 02:21:50;;;;;;;;;;;0.00;99.90;;;;;;5115382;28;19914;-43
2020/12/04 02:24:16;;;;;;;;;;;0.00;99.90;;;;;;5114799;28;19907;-41
2020/12/04 02:26:44;;;;;;;;;;;-0.10;99.90;;;;;;5114519;28;19911;-41
2020/12/04 02:29:10;;;;;;;;;;;-0.10;99.90;;;;;;5114743;28;19939;-41
2020/12/04 02:31:36;;;;;;;;;;;-0.10;99.90;;;;;;5114778;28;19951;-42
2020/12/04 02:34:01;;;;;;;;;;;-0.10;99.90;;;;;;5096471;28;19915;-42
2020/12/04 02:36:27;;;;;;;;;;;-0.10;99.90;;;;;;5115255;28;20258;-42
2020/12/04 02:38:52;;;;;;;;;;;0.00;99.90;;;;;;5114973;28;19907;-42
2020/12/04 02:41:18;;;;;;;;;;;0.00;99.90;;;;;;5096436;28;20315;-41
2020/12/04 02:43:44;;;;;;;;;;;0.00;99.90;;;;;;5114919;28;19966;-41
2020/12/04 02:46:09;;;;;;;;;;;0.00;99.90;;;;;;5114683;28;20369;-41
2020/12/04 02:48:35;;;;;;;;;;;0.10;99.90;;;;;;5096410;28;19964;-41
2020/12/04 02:51:01;;;;;;;;;;;0.10;99.90;;;;;;5114297;28;19912;-42
2020/12/04 02:53:27;;;;;;;;;;;0.10;99.90;;;;;;5114742;28;19911;-42
2020/12/04 02:55:52;;;;;;;;;;;0.20;99.90;;;;;;5114518;28;19912;-42
2020/12/04 02:58:18;;;;;;;;;;;0.10;99.90;;;;;;5114752;28;19949;-41
2020/12/04 03:00:44;;;;;;;;;;;0.10;99.90;;;;;;5114726;28;20041;-41
2020/12/04 03:03:09;;;;;;;;;;;0.10;99.90;;;;;;5114442;28;19914;-41
2020/12/04 03:05:35;;;;;;;;;;;0.20;99.90;;;;;;5114704;28;19951;-42
2020/12/04 03:08:00;;;;;;;;;;;0.10;99.90;;;;;;5114666;28;20337;-41
2020/12/04 03:10:26;;;;;;;;;;;0.20;99.90;;;;;;5082770;28;19921;-42
2020/12/04 03:12:52;;;;;;;;;;;0.20;99.90;;;;;;5073755;28;19916;-42
2020/12/04 03:15:18;;;;;;;;;;;0.20;99.90;;;;;;5073545;28;19913;-43
2020/12/04 03:17:43;;;;;;;;;;;0.20;99.90;;;;;;5074029;28;19954;-42
2020/12/04 03:20:09;;;;;;;;;;;0.20;99.90;;;;;;5073547;28;19909;-42
2020/12/04 03:22:35;;;;;;;;;;;0.10;99.90;;;;;;5073927;28;19932;-42
2020/12/04 03:25:01;;;;;;;;;;;0.10;99.90;;;;;;5073959;28;20374;-42
2020/12/04 03:27:27;;;;;;;;;;;0.10;99.90;;;;;;5073706;28;19990;-42
2020/12/04 03:29:53;;;;;;;;;;;0.10;99.90;;;;;;5072368;28;19917;-41
2020/12/04 03:32:18;;;;;;;;;;;0.20;99.90;;;;;;5073848;28;19909;-42
2020/12/04 03:34:44;;;;;;;;;;;0.10;99.90;;;;;;5076004;28;19920;-42
2020/12/04 03:37:10;;;;;;;;;;;0.10;99.90;;;;;;5077686;28;20092;-41
2020/12/04 03:39:36;;;;;;;;;;;0.10;99.90;;;;;;5077064;28;19916;-41
2020/12/04 03:42:02;;;;;;;;;;;0.10;99.90;;;;;;5077907;28;19912;-41
2020/12/04 03:44:28;;;;;;;;;;;0.10;99.90;;;;;;5077251;28;19909;-41
2020/12/04 03:46:54;;;;;;;;;;;0.00;99.90;;;;;;5077225;28;19909;-42
2020/12/04 03:49:19;;;;;;;;;;;0.10;99.90;;;;;;5076440;28;19908;-42
2020/12/04 03:51:45;;;;;;;;;;;0.10;99.90;;;;;;5075567;28;19909;-42
2020/12/04 03:54:11;;;;;;;;;;;0.10;99.90;;;;;;5077207;28;20366;-42
2020/12/04 03:56:36;;;;;;;;;;;0.20;99.90;;;;;;5077325;28;20334;-42
2020/12/04 03:59:02;;;;;;;;;;;0.20;99.90;;;;;;5075492;28;19915;-43
2020/12/04 04:01:28;;;;;;;;;;;0.20;99.90;;;;;;5077164;28;20358;-43
2020/12/04 04:03:53;;;;;;;;;;;0.30;99.90;;;;;;5077503;28;19917;-42
2020/12/04 04:06:19;;;;;;;;;;;0.50;99.90;;;;;;5077152;28;19908;-41
2020/12/04 04:08:44;;;;;;;;;;;0.40;99.90;;;;;;5075553;28;19915;-41
2020/12/04 04:11:10;;;;;;;;;;;0.40;99.90;;;;;;5108452;28;19920;-42
2020/12/04 04:13:36;;;;;;;;;;;0.40;99.90;;;;;;5117879;28;19981;-42
2020/12/04 04:16:02;;;;;;;;;;;0.40;99.90;;;;;;5117364;28;19915;-42
2020/12/04 04:18:27;;;;;;;;;;;0.40;99.90;;;;;;5117301;28;19923;-43
2020/12/04 04:20:53;;;;;;;;;;;0.40;99.90;;;;;;5098962;28;19999;-42
2020/12/04 04:23:19;;;;;;;;;;;0.40;99.90;;;;;;5117503;28;19929;-44
2020/12/04 04:25:45;;;;;;;;;;;0.40;99.90;;;;;;5118001;28;19953;-42
2020/12/04 04:28:13;;;;;;;;;;;0.30;99.90;;;;;;5116786;28;19922;-42
2020/12/04 04:30:39;;;;;;;;;;;0.30;99.90;;;;;;5117309;28;19912;-42
2020/12/04 04:33:05;;;;;;;;;;;0.30;99.90;;;;;;5116956;28;19911;-42
2020/12/04 04:35:31;;;;;;;;;;;0.30;99.90;;;;;;5098432;28;19939;-42
2020/12/04 04:37:57;;;;;;;;;;;0.30;99.90;;;;;;5117240;28;19914;-42
2020/12/04 04:40:23;;;;;;;;;;;0.30;99.90;;;;;;5116944;28;19908;-42
2020/12/04 04:42:49;;;;;;;;;;;0.20;99.90;;;;;;5116827;28;20011;-43
2020/12/04 04:45:16;;;;;;;;;;;0.20;99.90;;;;;;5117035;28;19949;-42
2020/12/04 04:47:42;;;;;;;;;;;0.20;99.90;;;;;;5132263;27;19911;-42
2020/12/04 04:50:08;;;;;;;;;;;0.10;99.90;;;;;;5116925;28;19908;-43
2020/12/04 04:52:34;;;;;;;;;;;0.10;99.90;;;;;;5116902;28;20285;-42
2020/12/04 04:55:00;;;;;;;;;;;0.10;99.90;;;;;;5098018;28;19918;-43
2020/12/04 04:57:26;;;;;;;;;;;0.10;99.90;;;;;;5116538;28;19908;-42
2020/12/04 04:59:54;;;;;;;;;;;0.10;99.90;;;;;;5116251;28;19918;-42
2020/12/04 05:02:20;;;;;;;;;;;0.00;99.90;;;;;;5116496;28;19951;-42
2020/12/04 05:04:46;;;;;;;;;;;0.00;99.90;;;;;;5116723;28;19953;-42
2020/12/04 05:07:12;;;;;;;;;;;0.00;99.90;;;;;;5116647;28;19911;-42
2020/12/04 05:09:38;;;;;;;;;;;0.00;99.90;;;;;;5098502;28;19915;-42
2020/12/04 05:12:06;;;;;;;;;;;0.00;99.90;;;;;;5116565;28;19912;-42
2020/12/04 05:14:32;;;;;;;;;;;0.10;99.90;;;;;;5116667;28;20277;-42
2020/12/04 05:16:58;;;;;;;;;;;0.10;99.90;;;;;;5116395;28;19912;-42
2020/12/04 05:19:30;;;;;;;;;;;0.10;99.90;;;;;;5116037;28;19908;-42
2020/12/04 05:21:56;;;;;;;;;;;0.10;99.90;;;;;;5116307;28;19908;-43
2020/12/04 05:24:25;;;;;;;;;;;0.00;99.90;;;;;;5116317;28;19918;-42
2020/12/04 05:26:51;;;;;;;;;;;0.00;99.90;;;;;;5116023;28;20011;-42
2020/12/04 05:29:18;;;;;;;;;;;0.10;99.90;;;;;;5116494;28;20342;-42
2020/12/04 05:31:43;;;;;;;;;;;0.10;99.90;;;;;;5115634;28;20002;-42
2020/12/04 05:34:22;;;;;;;;;;;0.20;99.90;;;;;;5116248;28;19974;-42
2020/12/04 05:36:51;;;;;;;;;;;0.20;99.90;;;;;;5115808;28;19955;-42
2020/12/04 05:39:16;;;;;;;;;;;0.20;99.90;;;;;;5115673;28;19908;-41
2020/12/04 05:41:48;;;;;;;;;;;0.20;99.90;;;;;;5115859;28;19926;-41
2020/12/04 05:44:15;;;;;;;;;;;0.20;99.90;;;;;;5115285;28;20381;-42
2020/12/04 05:46:51;;;;;;;;;;;0.10;99.90;;;;;;5115523;28;19969;-42
2020/12/04 05:49:16;;;;;;;;;;;0.10;99.90;;;;;;5116363;28;20268;-42
2020/12/04 05:51:42;;;;;;;;;;;0.20;99.90;;;;;;5115050;28;20002;-42
2020/12/04 05:54:10;;;;;;;;;;;0.20;99.90;;;;;;5115811;28;19937;-41
2020/12/04 05:56:36;;;;;;;;;;;0.20;99.90;;;;;;5114849;28;19911;-41
2020/12/04 05:59:03;;;;;;;;;;;0.20;99.90;;;;;;5115057;28;19911;-41
2020/12/04 06:01:29;;;;;;;;;;;0.20;99.90;;;;;;5115498;28;19908;-41
2020/12/04 06:03:55;;;;;;;;;;;0.30;99.90;;;;;;5115459;28;19908;-42
2020/12/04 06:06:21;;;;;;;;;;;0.20;99.90;;;;;;5115416;28;19914;-42
2020/12/04 06:08:46;;;;;;;;;;;0.30;99.90;;;;;;5115411;28;20351;-42
2020/12/04 06:11:12;;;;;;;;;;;0.30;99.90;;;;;;5114846;28;19930;-42
2020/12/04 06:13:38;;;;;;;;;;;0.30;99.90;;;;;;5114917;28;19912;-41
2020/12/04 06:16:13;;;;;;;;;;;0.30;99.90;;;;;;5115535;28;19919;-41
2020/12/04 06:18:39;;;;;;;;;;;0.30;99.90;;;;;;5115384;28;19908;-41
2020/12/04 06:21:05;;;;;;;;;;;0.20;99.90;;;;;;5130686;27;19907;-41
2020/12/04 06:23:32;;;;;;;;;;;0.20;99.90;;;;;;5114521;28;19908;-41
2020/12/04 06:25:59;;;;;;;;;;;0.20;99.90;;;;;;5115299;28;19976;-41
2020/12/04 06:28:29;;;;;;;;;;;0.20;99.90;;;;;;5115511;28;19958;-41
2020/12/04 06:30:58;;;;;;;;;;;0.30;99.90;;;;;;5115280;28;20006;-41
2020/12/04 06:33:33;;;;;;;;;;;0.30;99.90;;;;;;5115149;28;19919;-41
2020/12/04 06:35:59;;;;;;;;;;;0.30;99.90;;;;;;5114328;28;19912;-41
2020/12/04 06:38:38;;;;;;;;;;;0.30;99.90;;;;;;5114656;28;20292;-42
2020/12/04 06:41:23;;;;;;;;;;;0.30;99.90;;;;;;5114508;28;20369;-41
2020/12/04 06:43:50;;;;;;;;;;;0.30;99.90;;;;;;5114645;28;19908;-41
2020/12/04 06:46:32;;;;;;;;;;;0.30;99.90;;;;;;5114930;28;19908;-41
2020/12/04 06:49:08;;;;;;;;;;;0.30;99.90;;;;;;5114720;28;19907;-41
2020/12/04 06:51:34;;;;;;;;;;;0.30;99.90;;;;;;5114213;28;19919;-41
2020/12/04 06:53:59;;;;;;;;;;;0.30;99.90;;;;;;5114364;28;20018;-41
2020/12/04 06:56:25;;;;;;;;;;;0.20;99.90;;;;;;5096100;28;19966;-42
2020/12/04 06:58:51;;;;;;;;;;;0.20;99.90;;;;;;5114391;28;19915;-41
2020/12/04 07:01:20;;;;;;;;;;;0.20;99.90;;;;;;5114910;28;19908;-42
2020/12/04 07:03:46;;;;;;;;;;;0.30;99.90;;;;;;5114354;28;19908;-41
2020/12/04 07:06:11;;;;;;;;;;;0.30;99.90;;;;;;5114450;28;19918;-41
2020/12/04 07:08:57;;;;;;;;;;;0.40;99.90;;;;;;5115271;28;19908;-41
2020/12/04 07:11:24;;;;;;;;;;;0.50;99.90;;;;;;5118069;28;20032;-42
2020/12/04 07:13:50;;;;;;;;;;;0.50;99.90;;;;;;5118962;28;20356;-41
2020/12/04 07:16:16;;;;;;;;;;;0.50;99.90;;;;;;5118165;28;19912;-42
2020/12/04 07:18:42;;;;;;;;;;;0.50;99.90;;;;;;5118509;28;20277;-41
2020/12/04 07:21:07;;;;;;;;;;;0.50;99.90;;;;;;5118576;28;19911;-41
2020/12/04 07:23:36;;;;;;;;;;;0.50;99.90;;;;;;5117941;28;19925;-42
2020/12/04 07:26:03;;;;;;;;;;;0.40;99.90;;;;;;5118365;28;19911;-41
2020/12/04 07:28:30;;;;;;;;;;;0.50;99.90;;;;;;5099828;28;19960;-41
2020/12/04 07:30:56;;;;;;;;;;;0.50;99.90;;;;;;5117434;28;19908;-41
2020/12/04 07:33:22;;;;;;;;;;;0.50;99.90;;;;;;5117190;28;19926;-39
2020/12/04 07:35:47;;;;;;;;;;;0.70;99.90;;;;;;5115494;28;19954;-50
2020/12/04 07:38:13;;;;;;;;;;;0.70;99.90;;;;;;5099982;28;19908;-39
2020/12/04 07:40:40;;;;;;;;;;;0.90;99.90;;;;;;5096041;28;20011;-40
2020/12/04 07:43:10;;;;;;;;;;;1.00;99.90;;;;;;5095886;28;19943;-39
2020/12/04 07:45:35;;;;;;;;;;;1.10;99.90;;;;;;5099371;28;19922;-38
2020/12/04 07:48:07;;;;;;;;;;;1.10;99.90;;;;;;5115099;28;19912;-43
2020/12/04 07:50:33;;;;;;;;;;;1.30;99.90;;;;;;5077050;28;19954;-43
2020/12/04 07:52:59;;;;;;;;;;;1.40;99.90;;;;;;5099792;27;19924;-42
2020/12/04 07:55:25;;;;;;;;;;;1.40;99.90;;;;;;5100047;28;19908;-40
2020/12/04 07:57:57;;;;;;;;;;;1.50;99.90;;;;;;5096515;27;19913;-33
